Time;durP1;ratioP1;P1;durP2;ratioP2;P2;SDS_P1;SDS_P2;PMS_P1;PMS_P2;Temp;Humidity;BMP_temperature;BMP_pressure;BME280_temperature;BME280_humidity;BME280_pressure;Samples;Min_cycle;Max_cycle;Signal;HPM_P1;HPM_P2
2023/04/18 00:01:48;;;;;;;10.90;10.10;;;;;;;;;;4996044;28;20030;-60
2023/04/18 00:04:16;;;;;;;10.27;9.57;;;;;;;;;;4995879;28;20191;-60
2023/04/18 00:06:42;;;;;;;10.70;10.00;;;;;;;;;;4998593;28;20139;-60
2023/04/18 00:09:07;;;;;;;11.98;11.07;;;;;;;;;;4997125;28;20471;-59
2023/04/18 00:11:33;;;;;;;11.07;10.23;;;;;;;;;;4995269;28;20121;-60
2023/04/18 00:13:59;;;;;;;10.55;9.85;;;;;;;;;;5026704;28;20061;-59
2023/04/18 00:16:25;;;;;;;19.58;11.13;;;;;;;;;;4993776;28;20618;-60
2023/04/18 00:18:52;;;;;;;10.15;9.45;;;;;;;;;;4994776;28;20035;-60
2023/04/18 00:21:17;;;;;;;9.80;9.20;;;;;;;;;;4994810;28;20030;-60
2023/04/18 00:23:44;;;;;;;10.73;10.02;;;;;;;;;;5026367;28;20100;-59
2023/04/18 00:26:10;;;;;;;10.27;9.57;;;;;;;;;;4991436;28;20103;-59
2023/04/18 00:28:35;;;;;;;9.60;9.00;;;;;;;;;;4995488;28;20418;-59
2023/04/18 00:31:01;;;;;;;10.68;9.98;;;;;;;;;;4995757;28;20037;-60
2023/04/18 00:33:26;;;;;;;9.63;9.02;;;;;;;;;;4995525;28;20045;-59
2023/04/18 00:35:52;;;;;;;12.20;11.40;;;;;;;;;;4994343;28;20092;-60
2023/04/18 00:38:17;;;;;;;10.18;9.48;;;;;;;;;;4997234;28;20220;-60
2023/04/18 00:40:43;;;;;;;10.60;9.70;;;;;;;;;;4995934;28;20129;-59
2023/04/18 00:43:11;;;;;;;9.35;8.55;;;;;;;;;;4993391;28;20125;-59
2023/04/18 00:45:36;;;;;;;12.85;11.80;;;;;;;;;;4994129;28;20360;-59
2023/04/18 00:48:02;;;;;;;10.27;9.57;;;;;;;;;;4994733;28;20034;-60
2023/04/18 00:50:27;;;;;;;11.10;10.40;;;;;;;;;;4993590;28;20128;-59
2023/04/18 00:52:53;;;;;;;10.05;9.35;;;;;;;;;;4995600;28;20053;-60
2023/04/18 00:55:19;;;;;;;11.05;10.32;;;;;;;;;;4996193;28;20038;-60
2023/04/18 00:57:45;;;;;;;10.85;10.05;;;;;;;;;;4995614;28;20034;-60
2023/04/18 01:00:11;;;;;;;10.32;9.43;;;;;;;;;;4993981;28;20333;-60
2023/04/18 01:02:38;;;;;;;10.70;10.00;;;;;;;;;;4994819;28;20026;-59
2023/04/18 01:05:05;;;;;;;9.93;9.32;;;;;;;;;;4994404;28;20046;-60
2023/04/18 01:07:32;;;;;;;10.23;9.52;;;;;;;;;;4992681;28;20054;-59
2023/04/18 01:09:58;;;;;;;9.30;8.70;;;;;;;;;;4996280;28;20064;-59
2023/04/18 01:12:23;;;;;;;10.75;10.05;;;;;;;;;;4999807;28;20042;-59
2023/04/18 01:14:49;;;;;;;9.30;8.70;;;;;;;;;;5002814;28;20495;-59
2023/04/18 01:17:15;;;;;;;10.30;9.60;;;;;;;;;;5027809;28;20076;-59
2023/04/18 01:19:40;;;;;;;10.23;9.52;;;;;;;;;;4999051;28;20069;-59
2023/04/18 01:22:06;;;;;;;10.25;9.55;;;;;;;;;;5001221;28;20046;-59
2023/04/18 01:24:32;;;;;;;9.73;9.13;;;;;;;;;;4999784;28;20042;-60
2023/04/18 01:26:57;;;;;;;10.93;10.20;;;;;;;;;;4998551;28;20515;-59
2023/04/18 01:29:25;;;;;;;10.18;9.50;;;;;;;;;;4997717;28;20053;-60
2023/04/18 01:31:51;;;;;;;11.27;10.48;;;;;;;;;;4996404;28;20041;-59
2023/04/18 01:34:17;;;;;;;10.55;9.85;;;;;;;;;;5000102;28;20034;-59
2023/04/18 01:36:43;;;;;;;10.93;10.18;;;;;;;;;;4999576;28;20029;-59
2023/04/18 01:39:08;;;;;;;10.15;9.55;;;;;;;;;;4999095;28;20042;-59
2023/04/18 01:41:34;;;;;;;10.32;9.57;;;;;;;;;;4996553;28;20627;-59
2023/04/18 01:44:00;;;;;;;10.00;9.40;;;;;;;;;;4999370;28;20578;-59
2023/04/18 01:46:25;;;;;;;10.65;9.95;;;;;;;;;;5000459;28;20678;-59
2023/04/18 01:48:51;;;;;;;10.55;9.85;;;;;;;;;;4996468;28;20034;-60
2023/04/18 01:51:17;;;;;;;10.98;10.27;;;;;;;;;;4997456;28;20515;-59
2023/04/18 01:53:42;;;;;;;10.25;9.55;;;;;;;;;;4998719;28;20089;-59
2023/04/18 01:56:09;;;;;;;11.02;10.23;;;;;;;;;;5000432;28;20646;-59
2023/04/18 01:58:34;;;;;;;10.45;9.75;;;;;;;;;;4998385;28;20120;-59
2023/04/18 02:01:00;;;;;;;11.00;10.20;;;;;;;;;;4996688;28;20090;-59
2023/04/18 02:03:25;;;;;;;10.23;9.52;;;;;;;;;;4996387;28;20041;-59
2023/04/18 02:05:51;;;;;;;10.45;9.65;;;;;;;;;;5001205;28;20527;-59
2023/04/18 02:08:16;;;;;;;12.35;11.40;;;;;;;;;;4999301;28;20025;-60
2023/04/18 02:10:42;;;;;;;12.15;11.35;;;;;;;;;;4997591;28;20038;-60
2023/04/18 02:13:07;;;;;;;13.32;12.38;;;;;;;;;;4998801;28;20113;-59
2023/04/18 02:15:33;;;;;;;11.43;10.70;;;;;;;;;;4997847;28;20483;-60
2023/04/18 02:18:02;;;;;;;11.25;10.55;;;;;;;;;;4995592;28;20041;-60
2023/04/18 02:20:30;;;;;;;10.32;9.63;;;;;;;;;;4999170;28;20037;-60
2023/04/18 02:22:57;;;;;;;10.57;9.88;;;;;;;;;;4996935;28;20234;-60
2023/04/18 02:25:25;;;;;;;10.68;9.98;;;;;;;;;;4995600;28;20061;-60
2023/04/18 02:27:51;;;;;;;11.52;10.82;;;;;;;;;;4996460;28;20040;-60
2023/04/18 02:30:16;;;;;;;11.75;10.95;;;;;;;;;;4995994;28;20121;-59
2023/04/18 02:32:42;;;;;;;14.13;11.52;;;;;;;;;;4980537;28;20416;-60
2023/04/18 02:35:11;;;;;;;11.68;10.95;;;;;;;;;;4997693;28;20073;-60
2023/04/18 02:37:37;;;;;;;11.73;10.93;;;;;;;;;;4997070;28;20034;-60
2023/04/18 02:40:03;;;;;;;11.38;10.68;;;;;;;;;;4997713;28;20095;-59
2023/04/18 02:42:29;;;;;;;12.68;11.70;;;;;;;;;;4995186;28;20084;-60
2023/04/18 02:44:55;;;;;;;13.60;12.73;;;;;;;;;;4996701;28;20045;-60
2023/04/18 02:47:20;;;;;;;11.98;11.18;;;;;;;;;;4997217;28;20038;-60
2023/04/18 02:49:46;;;;;;;13.90;12.70;;;;;;;;;;4996982;28;20185;-60
2023/04/18 02:52:11;;;;;;;13.10;12.23;;;;;;;;;;4994393;28;20033;-60
2023/04/18 02:54:36;;;;;;;11.70;10.95;;;;;;;;;;4996996;28;20039;-60
2023/04/18 02:57:02;;;;;;;12.13;11.32;;;;;;;;;;4997373;28;20044;-60
2023/04/18 02:59:27;;;;;;;12.05;11.32;;;;;;;;;;4998165;28;20073;-60
2023/04/18 03:01:53;;;;;;;12.85;12.05;;;;;;;;;;4994747;28;20472;-60
2023/04/18 03:04:18;;;;;;;12.55;11.80;;;;;;;;;;4995312;28;20073;-60
2023/04/18 03:06:44;;;;;;;13.60;12.80;;;;;;;;;;4997219;28;20480;-60
2023/04/18 03:09:09;;;;;;;14.63;13.32;;;;;;;;;;5004178;28;20551;-60
2023/04/18 03:11:35;;;;;;;13.95;13.05;;;;;;;;;;4996845;28;20057;-60
2023/04/18 03:14:00;;;;;;;15.20;14.23;;;;;;;;;;4998220;28;20570;-60
2023/04/18 03:16:25;;;;;;;14.52;13.65;;;;;;;;;;4995998;28;20050;-60
2023/04/18 03:18:51;;;;;;;15.13;14.20;;;;;;;;;;4996735;28;20592;-60
2023/04/18 03:21:16;;;;;;;15.13;14.13;;;;;;;;;;4994562;28;20442;-60
2023/04/18 03:23:41;;;;;;;15.60;14.68;;;;;;;;;;4995136;28;20064;-60
2023/04/18 03:26:07;;;;;;;16.27;15.20;;;;;;;;;;4996866;28;20399;-60
2023/04/18 03:28:33;;;;;;;15.30;14.38;;;;;;;;;;4993705;28;20318;-60
2023/04/18 03:30:59;;;;;;;16.17;14.88;;;;;;;;;;4995655;28;20101;-60
2023/04/18 03:33:24;;;;;;;17.65;16.65;;;;;;;;;;4996111;28;20491;-60
2023/04/18 03:35:49;;;;;;;17.90;16.88;;;;;;;;;;4998087;28;20084;-61
2023/04/18 03:38:15;;;;;;;17.10;16.08;;;;;;;;;;4994252;28;20049;-60
2023/04/18 03:40:43;;;;;;;18.25;17.20;;;;;;;;;;4995394;28;20034;-60
2023/04/18 03:43:08;;;;;;;17.75;16.60;;;;;;;;;;4994328;28;20523;-60
2023/04/18 03:45:34;;;;;;;19.92;18.80;;;;;;;;;;4996314;28;20053;-60
2023/04/18 03:47:59;;;;;;;19.10;18.00;;;;;;;;;;4996861;28;20040;-61
2023/04/18 03:50:24;;;;;;;21.38;19.95;;;;;;;;;;4995500;28;20038;-60
2023/04/18 03:52:51;;;;;;;19.02;17.95;;;;;;;;;;4995931;28;20420;-60
2023/04/18 03:55:18;;;;;;;19.83;18.63;;;;;;;;;;4995370;28;20065;-60
2023/04/18 03:57:43;;;;;;;19.88;18.77;;;;;;;;;;4995359;28;20056;-60
2023/04/18 04:00:09;;;;;;;20.13;18.63;;;;;;;;;;4995195;28;20033;-60
2023/04/18 04:02:35;;;;;;;18.55;17.50;;;;;;;;;;4995384;28;20038;-60
2023/04/18 04:05:02;;;;;;;17.35;16.25;;;;;;;;;;4995522;28;20060;-59
2023/04/18 04:07:27;;;;;;;18.08;16.92;;;;;;;;;;4997192;28;20476;-60
2023/04/18 04:09:52;;;;;;;18.65;17.45;;;;;;;;;;4996237;28;20064;-61
2023/04/18 04:12:18;;;;;;;15.90;14.95;;;;;;;;;;4996079;28;20038;-64
2023/04/18 04:14:43;;;;;;;16.02;15.07;;;;;;;;;;4994899;28;20461;-60
2023/04/18 04:17:08;;;;;;;16.98;15.90;;;;;;;;;;4994056;28;20382;-60
2023/04/18 04:19:34;;;;;;;16.30;14.95;;;;;;;;;;4996462;28;20126;-60
2023/04/18 04:21:59;;;;;;;16.98;15.95;;;;;;;;;;4996095;28;20384;-61
2023/04/18 04:24:24;;;;;;;16.73;15.65;;;;;;;;;;4996621;28;20034;-60
2023/04/18 04:26:50;;;;;;;16.25;15.05;;;;;;;;;;4996684;28;20045;-60
2023/04/18 04:29:16;;;;;;;14.60;13.70;;;;;;;;;;4995343;28;20049;-60
2023/04/18 04:31:42;;;;;;;15.68;14.75;;;;;;;;;;4996173;28;20346;-60
2023/04/18 04:34:07;;;;;;;14.35;13.40;;;;;;;;;;4994754;28;20081;-60
2023/04/18 04:36:33;;;;;;;14.50;13.60;;;;;;;;;;5029100;28;20137;-60
2023/04/18 04:38:59;;;;;;;14.65;13.75;;;;;;;;;;4995039;28;20464;-60
2023/04/18 04:41:24;;;;;;;15.02;13.90;;;;;;;;;;4998263;28;20031;-60
2023/04/18 04:43:51;;;;;;;13.40;12.50;;;;;;;;;;4991917;28;20034;-61
2023/04/18 04:46:18;;;;;;;13.02;12.02;;;;;;;;;;4995315;28;20060;-60
2023/04/18 04:48:44;;;;;;;13.13;12.23;;;;;;;;;;4993819;28;20049;-60
2023/04/18 04:51:09;;;;;;;12.35;11.50;;;;;;;;;;4994925;28;20098;-60
2023/04/18 04:53:34;;;;;;;13.18;12.23;;;;;;;;;;4991552;28;20510;-60
2023/04/18 04:56:00;;;;;;;14.27;12.88;;;;;;;;;;4992306;28;20415;-60
2023/04/18 04:58:26;;;;;;;12.43;11.55;;;;;;;;;;4993316;28;20642;-60
2023/04/18 05:00:52;;;;;;;10.73;9.93;;;;;;;;;;4993701;28;20133;-60
2023/04/18 05:03:18;;;;;;;13.40;12.48;;;;;;;;;;4991434;28;20030;-59
2023/04/18 05:05:44;;;;;;;10.75;9.95;;;;;;;;;;4996192;28;20049;-60
2023/04/18 05:08:09;;;;;;;10.70;10.00;;;;;;;;;;4995554;28;20079;-60
2023/04/18 05:10:37;;;;;;;12.05;11.20;;;;;;;;;;4992355;28;20062;-61
2023/04/18 05:13:03;;;;;;;11.88;11.13;;;;;;;;;;4992747;28;20510;-61
2023/04/18 05:15:30;;;;;;;12.95;11.02;;;;;;;;;;4994220;28;20038;-60
2023/04/18 05:17:56;;;;;;;12.02;11.23;;;;;;;;;;4992724;28;20459;-60
2023/04/18 05:20:21;;;;;;;11.50;10.60;;;;;;;;;;4992737;28;20057;-60
2023/04/18 05:22:47;;;;;;;10.75;10.05;;;;;;;;;;4994599;28;20447;-60
2023/04/18 05:25:12;;;;;;;11.02;10.30;;;;;;;;;;4990580;28;20038;-61
2023/04/18 05:27:38;;;;;;;12.52;11.63;;;;;;;;;;5023124;28;20034;-61
2023/04/18 05:30:03;;;;;;;9.90;9.30;;;;;;;;;;4992506;28;20411;-60
2023/04/18 05:32:29;;;;;;;12.13;11.18;;;;;;;;;;4994464;28;20069;-61
2023/04/18 05:34:55;;;;;;;10.82;10.05;;;;;;;;;;4995594;28;20290;-61
2023/04/18 05:37:21;;;;;;;13.55;11.63;;;;;;;;;;4993322;28;20726;-60
2023/04/18 05:39:46;;;;;;;11.52;10.75;;;;;;;;;;4994777;28;20030;-60
2023/04/18 05:42:12;;;;;;;10.70;10.00;;;;;;;;;;4993720;28;20337;-59
2023/04/18 05:44:37;;;;;;;10.20;9.52;;;;;;;;;;4991144;28;20407;-62
2023/04/18 05:47:04;;;;;;;10.90;10.20;;;;;;;;;;4993383;28;20160;-59
2023/04/18 05:49:31;;;;;;;10.38;9.68;;;;;;;;;;4994934;28;20133;-59
2023/04/18 05:51:56;;;;;;;11.40;10.60;;;;;;;;;;4994431;28;20376;-58
2023/04/18 05:54:23;;;;;;;10.73;10.02;;;;;;;;;;4997189;28;20045;-59
2023/04/18 05:56:50;;;;;;;10.20;9.50;;;;;;;;;;4994454;28;20046;-58
2023/04/18 05:59:15;;;;;;;10.90;10.10;;;;;;;;;;4999336;28;20539;-59
2023/04/18 06:01:41;;;;;;;10.23;9.52;;;;;;;;;;4999940;28;20117;-60
2023/04/18 06:04:07;;;;;;;9.57;8.95;;;;;;;;;;4999835;28;20062;-59
2023/04/18 06:06:33;;;;;;;9.98;9.35;;;;;;;;;;4999875;28;20459;-59
2023/04/18 06:08:59;;;;;;;10.98;10.18;;;;;;;;;;5000143;28;20084;-59
2023/04/18 06:11:24;;;;;;;10.25;9.48;;;;;;;;;;4997464;28;20476;-60
2023/04/18 06:13:50;;;;;;;10.43;9.73;;;;;;;;;;4995387;28;20358;-60
2023/04/18 06:16:15;;;;;;;10.38;9.68;;;;;;;;;;4997913;28;20050;-60
2023/04/18 06:18:41;;;;;;;11.00;10.10;;;;;;;;;;4999869;28;20121;-60
2023/04/18 06:21:06;;;;;;;11.10;9.98;;;;;;;;;;4996354;28;20101;-60
2023/04/18 06:23:31;;;;;;;10.75;9.95;;;;;;;;;;5028814;28;20061;-59
2023/04/18 06:25:57;;;;;;;10.50;9.80;;;;;;;;;;4998503;28;20041;-58
2023/04/18 06:28:23;;;;;;;11.15;10.35;;;;;;;;;;4997243;28;20448;-59
2023/04/18 06:30:48;;;;;;;11.52;10.73;;;;;;;;;;4996049;28;20600;-59
2023/04/18 06:33:14;;;;;;;10.55;9.85;;;;;;;;;;4999423;28;20042;-64
2023/04/18 06:35:40;;;;;;;11.07;10.27;;;;;;;;;;4995729;28;20448;-60
2023/04/18 06:38:05;;;;;;;10.73;9.95;;;;;;;;;;4996942;28;20044;-59
2023/04/18 06:40:30;;;;;;;10.75;9.95;;;;;;;;;;4999889;28;20038;-60
2023/04/18 06:42:56;;;;;;;10.50;9.80;;;;;;;;;;4996067;28;20037;-60
2023/04/18 06:45:21;;;;;;;10.77;9.93;;;;;;;;;;4999712;28;20084;-60
2023/04/18 06:47:48;;;;;;;10.77;9.98;;;;;;;;;;4997414;28;20029;-60
2023/04/18 06:50:14;;;;;;;10.82;10.13;;;;;;;;;;4983912;28;20034;-60
2023/04/18 06:52:43;;;;;;;11.13;10.07;;;;;;;;;;4993630;28;20776;-60
2023/04/18 06:55:09;;;;;;;11.40;10.60;;;;;;;;;;5000169;28;20041;-60
2023/04/18 06:57:35;;;;;;;9.82;9.13;;;;;;;;;;5028153;28;20050;-58
2023/04/18 07:00:01;;;;;;;11.32;10.60;;;;;;;;;;4996943;28;20409;-58
2023/04/18 07:02:26;;;;;;;10.57;9.88;;;;;;;;;;4998107;28;20038;-58
2023/04/18 07:04:52;;;;;;;10.20;9.50;;;;;;;;;;4992346;28;20029;-60
2023/04/18 07:07:17;;;;;;;13.13;12.00;;;;;;;;;;5027768;28;20038;-59
2023/04/18 07:09:42;;;;;;;9.98;9.27;;;;;;;;;;4992931;28;20041;-59
2023/04/18 07:12:08;;;;;;;11.20;10.32;;;;;;;;;;4996085;28;20034;-59
2023/04/18 07:14:33;;;;;;;10.43;9.70;;;;;;;;;;4996206;28;20125;-59
2023/04/18 07:16:59;;;;;;;10.73;9.93;;;;;;;;;;4996109;28;20037;-58
2023/04/18 07:19:25;;;;;;;11.07;10.23;;;;;;;;;;4994255;28;20036;-59
2023/04/18 07:21:50;;;;;;;11.82;9.13;;;;;;;;;;4996349;28;20400;-59
2023/04/18 07:24:15;;;;;;;10.52;9.48;;;;;;;;;;4997392;28;20045;-58
2023/04/18 07:26:41;;;;;;;10.05;9.45;;;;;;;;;;5027227;28;20017;-58
2023/04/18 07:29:06;;;;;;;10.65;9.95;;;;;;;;;;4995269;28;20194;-58
2023/04/18 07:31:32;;;;;;;12.13;11.30;;;;;;;;;;4996900;28;20026;-60
2023/04/18 07:33:57;;;;;;;10.40;9.63;;;;;;;;;;4994215;28;20069;-57
2023/04/18 07:36:23;;;;;;;11.48;10.57;;;;;;;;;;4996976;28;20030;-58
2023/04/18 07:38:48;;;;;;;11.52;10.73;;;;;;;;;;4993781;28;20695;-58
2023/04/18 07:41:14;;;;;;;9.98;9.35;;;;;;;;;;4995040;28;20033;-58
2023/04/18 07:43:40;;;;;;;11.80;11.00;;;;;;;;;;4995553;28;20506;-58
2023/04/18 07:46:05;;;;;;;10.48;9.77;;;;;;;;;;4994561;28;20479;-58
2023/04/18 07:48:31;;;;;;;11.30;10.27;;;;;;;;;;4996123;28;20073;-58
2023/04/18 07:50:56;;;;;;;11.68;10.88;;;;;;;;;;4996233;28;20371;-58
2023/04/18 07:53:21;;;;;;;10.80;10.10;;;;;;;;;;4996820;28;20117;-58
2023/04/18 07:55:47;;;;;;;10.43;9.73;;;;;;;;;;4996076;28;20034;-58
2023/04/18 07:58:12;;;;;;;12.50;11.70;;;;;;;;;;4994988;28;20030;-58
2023/04/18 08:00:38;;;;;;;11.52;10.82;;;;;;;;;;4995684;28;20038;-58
2023/04/18 08:03:06;;;;;;;10.63;9.93;;;;;;;;;;4990375;28;20049;-58
2023/04/18 08:05:31;;;;;;;12.35;11.45;;;;;;;;;;5001357;28;20081;-58
2023/04/18 08:07:57;;;;;;;11.65;10.95;;;;;;;;;;4992466;28;20069;-58
2023/04/18 08:10:22;;;;;;;12.25;11.35;;;;;;;;;;4994377;28;20034;-59
2023/04/18 08:12:48;;;;;;;12.15;11.35;;;;;;;;;;4991787;28;20084;-59
2023/04/18 08:15:13;;;;;;;21.13;11.23;;;;;;;;;;4995633;28;20038;-59
2023/04/18 08:17:38;;;;;;;11.63;10.52;;;;;;;;;;4996154;28;20044;-59
2023/04/18 08:20:06;;;;;;;13.15;12.02;;;;;;;;;;4990204;28;20113;-59
2023/04/18 08:22:32;;;;;;;11.88;11.07;;;;;;;;;;4996084;28;20074;-58
2023/04/18 08:24:59;;;;;;;11.85;11.15;;;;;;;;;;4995804;28;20049;-59
2023/04/18 08:27:25;;;;;;;11.32;10.57;;;;;;;;;;4996086;28;20029;-59
2023/04/18 08:29:50;;;;;;;12.48;11.57;;;;;;;;;;4994888;28;20293;-58
2023/04/18 08:32:16;;;;;;;10.75;10.05;;;;;;;;;;4989825;28;20034;-58
2023/04/18 08:34:42;;;;;;;11.63;10.93;;;;;;;;;;4995542;28;20044;-59
2023/04/18 08:37:08;;;;;;;12.10;11.13;;;;;;;;;;4992930;28;20030;-58
2023/04/18 08:39:34;;;;;;;11.13;10.43;;;;;;;;;;4995491;28;20045;-59
2023/04/18 08:42:00;;;;;;;12.73;11.90;;;;;;;;;;4994835;28;20034;-58
2023/04/18 08:44:28;;;;;;;14.65;13.63;;;;;;;;;;4993525;28;20046;-58
2023/04/18 08:46:55;;;;;;;13.70;12.80;;;;;;;;;;4996122;28;20062;-58
2023/04/18 08:49:21;;;;;;;12.00;11.10;;;;;;;;;;4993571;28;20376;-59
2023/04/18 08:51:49;;;;;;;13.48;12.68;;;;;;;;;;4996290;28;20026;-59
2023/04/18 08:54:14;;;;;;;11.80;11.00;;;;;;;;;;4996381;28;20084;-59
2023/04/18 08:56:41;;;;;;;11.90;11.10;;;;;;;;;;4993685;28;20034;-58
2023/04/18 08:59:06;;;;;;;12.93;11.95;;;;;;;;;;4993034;28;20041;-58
2023/04/18 09:01:55;;;;;;;10.50;9.80;;;;;;;;;;5001605;28;20064;-59
2023/04/18 09:04:43;;;;;;;12.30;11.35;;;;;;;;;;4997227;28;20471;-59
2023/04/18 09:07:11;;;;;;;11.60;10.80;;;;;;;;;;4992061;28;20034;-58
2023/04/18 09:09:50;;;;;;;11.43;10.73;;;;;;;;;;4994433;28;20038;-58
2023/04/18 09:12:26;;;;;;;11.25;10.40;;;;;;;;;;4993907;28;20241;-58
2023/04/18 09:15:08;;;;;;;11.57;10.88;;;;;;;;;;4993525;28;20544;-59
2023/04/18 09:17:35;;;;;;;10.73;10.02;;;;;;;;;;4991376;28;20093;-59
2023/04/18 09:20:05;;;;;;;10.80;9.98;;;;;;;;;;4995710;28;20356;-61
2023/04/18 09:22:51;;;;;;;10.63;9.93;;;;;;;;;;4995640;28;20062;-64
2023/04/18 09:25:28;;;;;;;10.68;10.02;;;;;;;;;;4994915;28;20037;-65
2023/04/18 09:27:56;;;;;;;11.98;11.18;;;;;;;;;;5024114;28;20042;-69
2023/04/18 09:30:38;;;;;;;11.60;10.80;;;;;;;;;;4993525;28;20044;-69
2023/04/18 09:33:11;;;;;;;11.50;10.70;;;;;;;;;;4997176;28;20042;-68
2023/04/18 09:35:37;;;;;;;11.70;10.90;;;;;;;;;;5001225;28;20044;-68
2023/04/18 09:38:03;;;;;;;10.98;10.27;;;;;;;;;;4997921;28;20392;-68
2023/04/18 09:40:29;;;;;;;10.93;10.23;;;;;;;;;;4998035;28;20369;-68
2023/04/18 09:42:55;;;;;;;11.32;10.52;;;;;;;;;;4995852;28;20109;-68
2023/04/18 09:45:21;;;;;;;12.88;11.85;;;;;;;;;;4998162;28;20034;-68
2023/04/18 09:47:47;;;;;;;11.90;11.20;;;;;;;;;;4996410;28;20030;-68
2023/04/18 09:50:12;;;;;;;10.93;10.23;;;;;;;;;;4999771;28;20098;-68
2023/04/18 09:52:39;;;;;;;10.93;10.23;;;;;;;;;;4997405;28;20034;-68
2023/04/18 09:55:10;;;;;;;11.60;10.90;;;;;;;;;;5000176;28;20065;-68
2023/04/18 09:57:40;;;;;;;14.02;13.07;;;;;;;;;;4998560;28;20057;-68
2023/04/18 10:00:12;;;;;;;12.38;11.57;;;;;;;;;;4998858;28;20091;-68
2023/04/18 10:03:06;;;;;;;14.27;13.38;;;;;;;;;;5011540;28;20041;-66
2023/04/18 10:05:40;;;;;;;15.10;14.20;;;;;;;;;;4996336;28;20045;-68
2023/04/18 10:08:05;;;;;;;13.73;12.93;;;;;;;;;;4992857;28;20041;-67
2023/04/18 10:10:32;;;;;;;21.50;20.10;;;;;;;;;;4999684;28;20053;-68
2023/04/18 10:13:00;;;;;;;16.77;15.77;;;;;;;;;;4996942;28;20201;-68
2023/04/18 10:15:28;;;;;;;21.48;20.30;;;;;;;;;;4999382;28;20123;-68
2023/04/18 10:18:00;;;;;;;25.15;23.40;;;;;;;;;;4995128;28;20053;-68
2023/04/18 10:20:30;;;;;;;21.80;20.60;;;;;;;;;;4998303;28;20034;-68
2023/04/18 10:22:57;;;;;;;21.73;20.42;;;;;;;;;;4997095;28;20137;-68
2023/04/18 10:25:37;;;;;;;24.73;23.33;;;;;;;;;;4998959;28;20037;-68
2023/04/18 10:28:05;;;;;;;25.35;23.95;;;;;;;;;;4993411;28;20034;-68
2023/04/18 10:30:39;;;;;;;24.25;22.95;;;;;;;;;;4997747;28;20108;-68
2023/04/18 10:33:37;;;;;;;28.23;26.52;;;;;;;;;;4995471;28;20042;-68
2023/04/18 10:36:15;;;;;;;26.52;25.13;;;;;;;;;;4995130;28;20042;-68
2023/04/18 10:39:02;;;;;;;23.13;21.83;;;;;;;;;;4999289;28;20112;-68
2023/04/18 10:41:29;;;;;;;24.45;23.15;;;;;;;;;;4997387;28;20445;-67
2023/04/18 10:44:07;;;;;;;24.63;23.23;;;;;;;;;;4996895;28;20057;-68
2023/04/18 10:46:33;;;;;;;24.63;23.02;;;;;;;;;;4996726;28;20030;-68
2023/04/18 10:49:25;;;;;;;23.27;21.98;;;;;;;;;;4996608;28;20052;-68
2023/04/18 10:51:52;;;;;;;19.23;18.13;;;;;;;;;;4995563;28;20286;-69
2023/04/18 10:54:35;;;;;;;19.77;18.67;;;;;;;;;;4996385;28;20034;-68
2023/04/18 10:57:03;;;;;;;16.33;15.43;;;;;;;;;;4997600;28;20038;-69
2023/04/18 10:59:30;;;;;;;17.88;16.88;;;;;;;;;;4996110;28;20080;-69
2023/04/18 11:02:02;;;;;;;17.45;16.35;;;;;;;;;;4990038;28;20061;-70
2023/04/18 11:04:28;;;;;;;15.63;14.73;;;;;;;;;;5004144;28;20087;-70
2023/04/18 11:06:54;;;;;;;17.80;16.70;;;;;;;;;;4991924;28;20030;-70
2023/04/18 11:09:21;;;;;;;15.63;14.15;;;;;;;;;;4995720;28;20121;-69
2023/04/18 11:12:05;;;;;;;13.32;12.52;;;;;;;;;;4996449;28;20033;-69
2023/04/18 11:14:43;;;;;;;15.35;14.43;;;;;;;;;;4993374;28;20038;-71
2023/04/18 11:17:23;;;;;;;12.88;12.10;;;;;;;;;;4992708;28;20556;-71
2023/04/18 11:19:49;;;;;;;13.65;12.75;;;;;;;;;;4994229;28;20299;-70
2023/04/18 11:22:17;;;;;;;12.48;11.68;;;;;;;;;;4994761;28;20049;-71
2023/04/18 11:24:43;;;;;;;12.77;11.93;;;;;;;;;;4996989;28;20037;-70
2023/04/18 11:27:10;;;;;;;14.18;13.27;;;;;;;;;;4993392;28;20030;-71
2023/04/18 11:29:36;;;;;;;12.35;11.55;;;;;;;;;;5001939;28;20641;-71
2023/04/18 11:32:05;;;;;;;14.15;13.32;;;;;;;;;;4993287;28;20156;-69
2023/04/18 11:34:31;;;;;;;16.15;15.25;;;;;;;;;;4993914;28;20049;-69
2023/04/18 11:36:57;;;;;;;18.48;17.48;;;;;;;;;;4995501;28;20365;-69
2023/04/18 11:39:23;;;;;;;17.17;16.20;;;;;;;;;;4993800;28;20038;-70
2023/04/18 11:41:49;;;;;;;14.40;13.50;;;;;;;;;;4992532;28;20026;-70
2023/04/18 11:44:22;;;;;;;12.38;11.48;;;;;;;;;;4998130;28;20033;-71
2023/04/18 11:46:49;;;;;;;12.05;11.35;;;;;;;;;;4996026;28;20045;-70
2023/04/18 11:49:27;;;;;;;12.02;11.32;;;;;;;;;;4994935;28;20038;-69
2023/04/18 11:51:53;;;;;;;11.65;10.88;;;;;;;;;;4993757;28;20034;-69
2023/04/18 11:54:41;;;;;;;12.27;11.55;;;;;;;;;;4994235;28;20057;-70
2023/04/18 11:57:25;;;;;;;13.05;12.25;;;;;;;;;;4992384;28;20038;-71
2023/04/18 12:00:00;;;;;;;12.77;11.98;;;;;;;;;;4991317;28;20560;-70
2023/04/18 12:02:42;;;;;;;13.05;12.15;;;;;;;;;;4991870;28;20477;-69
2023/04/18 12:05:09;;;;;;;12.35;11.65;;;;;;;;;;4997691;28;20623;-69
2023/04/18 12:07:36;;;;;;;11.95;11.25;;;;;;;;;;4996909;28;20029;-70
2023/04/18 12:10:03;;;;;;;11.52;10.82;;;;;;;;;;4998246;28;20030;-71
2023/04/18 12:12:28;;;;;;;12.35;11.52;;;;;;;;;;4998030;28;20033;-71
2023/04/18 12:14:58;;;;;;;13.13;12.32;;;;;;;;;;4998557;28;20049;-72
2023/04/18 12:17:27;;;;;;;12.50;11.70;;;;;;;;;;4994957;28;20121;-68
2023/04/18 12:19:54;;;;;;;12.50;11.73;;;;;;;;;;5002319;28;20030;-67
2023/04/18 12:22:36;;;;;;;12.77;11.90;;;;;;;;;;4992624;28;20684;-67
2023/04/18 12:25:21;;;;;;;12.63;11.82;;;;;;;;;;4994384;28;21037;-67
2023/04/18 12:27:57;;;;;;;11.98;11.18;;;;;;;;;;4994186;28;20109;-68
2023/04/18 12:30:26;;;;;;;12.95;12.18;;;;;;;;;;4995708;28;20490;-67
2023/04/18 12:32:53;;;;;;;12.35;11.65;;;;;;;;;;4996047;28;20081;-70
2023/04/18 12:35:20;;;;;;;11.80;11.10;;;;;;;;;;4994393;28;20038;-70
2023/04/18 12:37:51;;;;;;;12.02;11.32;;;;;;;;;;4996524;28;20108;-70
2023/04/18 12:40:17;;;;;;;12.45;11.45;;;;;;;;;;4996198;28;20096;-70
2023/04/18 12:42:44;;;;;;;16.65;13.00;;;;;;;;;;4991521;28;20030;-69
2023/04/18 12:45:10;;;;;;;12.60;11.90;;;;;;;;;;4995680;28;20038;-70
2023/04/18 12:47:40;;;;;;;11.90;11.20;;;;;;;;;;4995980;28;20030;-70
2023/04/18 12:50:07;;;;;;;11.95;11.23;;;;;;;;;;4996190;28;20380;-70
2023/04/18 12:52:33;;;;;;;11.60;10.90;;;;;;;;;;4995444;28;20053;-70
2023/04/18 12:54:58;;;;;;;12.40;11.60;;;;;;;;;;4995988;28;20042;-70
2023/04/18 12:57:24;;;;;;;12.38;11.68;;;;;;;;;;4995311;28;20058;-70
2023/04/18 12:59:49;;;;;;;12.73;11.93;;;;;;;;;;4996090;28;20029;-70
2023/04/18 13:02:15;;;;;;;12.90;12.10;;;;;;;;;;4995275;28;20074;-69
2023/04/18 13:04:40;;;;;;;12.38;11.68;;;;;;;;;;4994757;28;20044;-70
2023/04/18 13:07:05;;;;;;;11.90;11.20;;;;;;;;;;4996630;28;20038;-69
2023/04/18 13:09:31;;;;;;;13.18;12.38;;;;;;;;;;4995458;28;20050;-68
2023/04/18 13:11:57;;;;;;;13.00;12.20;;;;;;;;;;4994341;28;20042;-70
2023/04/18 13:14:22;;;;;;;13.30;12.50;;;;;;;;;;4995616;28;20026;-69
2023/04/18 13:16:48;;;;;;;12.45;11.73;;;;;;;;;;4994922;28;20483;-69
2023/04/18 13:19:13;;;;;;;11.93;11.23;;;;;;;;;;4995070;28;20929;-70
2023/04/18 13:21:38;;;;;;;12.43;11.63;;;;;;;;;;4993989;28;20041;-70
2023/04/18 13:24:04;;;;;;;11.50;10.63;;;;;;;;;;4993346;28;20035;-69
2023/04/18 13:26:34;;;;;;;14.02;13.23;;;;;;;;;;4994261;28;20026;-70
2023/04/18 13:29:00;;;;;;;12.90;12.10;;;;;;;;;;5001146;28;20044;-69
2023/04/18 13:31:25;;;;;;;11.13;10.43;;;;;;;;;;4991152;28;20710;-68
2023/04/18 13:33:51;;;;;;;12.93;12.13;;;;;;;;;;4991478;28;20046;-68
2023/04/18 13:36:16;;;;;;;15.70;14.80;;;;;;;;;;4996210;28;20070;-69
2023/04/18 13:38:42;;;;;;;15.13;14.23;;;;;;;;;;4994925;28;20045;-69
2023/04/18 13:41:07;;;;;;;15.80;14.90;;;;;;;;;;4994171;28;20068;-68
2023/04/18 13:43:32;;;;;;;13.32;12.52;;;;;;;;;;4994965;28;20598;-68
2023/04/18 13:45:58;;;;;;;13.15;12.35;;;;;;;;;;4994514;28;20038;-68
2023/04/18 13:48:23;;;;;;;12.00;11.30;;;;;;;;;;4992481;28;20030;-67
2023/04/18 13:50:50;;;;;;;12.55;11.85;;;;;;;;;;4992982;28;20084;-69
2023/04/18 13:53:16;;;;;;;13.52;12.73;;;;;;;;;;4995814;28;20041;-68
2023/04/18 13:55:42;;;;;;;12.90;12.10;;;;;;;;;;4994322;28;20598;-68
2023/04/18 13:58:07;;;;;;;13.18;12.38;;;;;;;;;;4992254;28;20058;-68
2023/04/18 14:00:33;;;;;;;13.00;12.23;;;;;;;;;;4995625;28;20097;-68
2023/04/18 14:02:58;;;;;;;13.02;12.23;;;;;;;;;;4991856;28;20041;-69
2023/04/18 14:05:24;;;;;;;14.73;13.85;;;;;;;;;;4995289;28;20030;-69
2023/04/18 14:07:49;;;;;;;17.35;16.35;;;;;;;;;;4994254;28;20065;-70
2023/04/18 14:10:14;;;;;;;15.90;15.00;;;;;;;;;;4994478;28;20026;-70
2023/04/18 14:12:40;;;;;;;17.73;16.73;;;;;;;;;;4994420;28;20403;-69
2023/04/18 14:15:06;;;;;;;17.42;16.42;;;;;;;;;;4994947;28;20041;-69
2023/04/18 14:17:31;;;;;;;18.52;17.52;;;;;;;;;;4995211;28;20034;-70
2023/04/18 14:19:56;;;;;;;17.92;16.92;;;;;;;;;;4998420;28;20104;-70
2023/04/18 14:22:22;;;;;;;15.95;15.02;;;;;;;;;;4999635;28;20038;-69